createdAt,value
2018-03-26T00:00:21.338Z,61.05
2018-03-26T00:02:49.686Z,61.05
2018-03-26T00:05:18.030Z,61.11
2018-03-26T00:07:46.381Z,61.26
2018-03-26T00:10:14.710Z,61.19
2018-03-26T00:12:43.064Z,60.82
2018-03-26T00:15:11.394Z,60.83
2018-03-26T00:17:39.746Z,60.88
2018-03-26T00:20:08.077Z,61.60
2018-03-26T00:22:36.429Z,61.93
2018-03-26T00:25:04.764Z,62.09
2018-03-26T00:27:33.127Z,62.53
2018-03-26T00:30:01.454Z,62.71
2018-03-26T00:32:29.807Z,63.11
2018-03-26T00:34:58.147Z,63.53
2018-03-26T00:37:26.502Z,63.58
2018-03-26T00:39:54.830Z,63.94
2018-03-26T00:42:23.173Z,64.13
2018-03-26T00:44:51.498Z,63.83
2018-03-26T00:47:19.846Z,64.16
2018-03-26T00:49:48.171Z,64.30
2018-03-26T00:52:16.518Z,64.64
2018-03-26T00:54:44.830Z,64.55
2018-03-26T00:57:13.186Z,64.52
2018-03-26T00:59:41.510Z,64.74
2018-03-26T01:02:09.861Z,64.76
2018-03-26T01:04:38.187Z,64.16
2018-03-26T01:07:06.531Z,63.81
2018-03-26T01:09:34.850Z,64.07
2018-03-26T01:14:30.574Z,64.32
2018-03-26T01:16:58.913Z,64.16
2018-03-26T01:19:27.243Z,64.11
2018-03-26T01:21:55.590Z,64.04
2018-03-26T01:24:23.918Z,63.98
2018-03-26T01:26:52.267Z,63.71
2018-03-26T01:29:20.598Z,63.83
2018-03-26T01:31:48.922Z,63.95
2018-03-26T01:34:17.260Z,63.94
2018-03-26T01:36:45.587Z,63.83
2018-03-26T01:39:13.926Z,63.79
2018-03-26T01:41:42.242Z,63.87
2018-03-26T01:44:10.591Z,63.91
2018-03-26T01:46:38.913Z,64.02
2018-03-26T01:49:07.258Z,64.01
2018-03-26T01:51:35.586Z,64.00
2018-03-26T01:54:03.932Z,64.30
2018-03-26T01:56:32.463Z,64.42
2018-03-26T01:59:00.622Z,64.73
2018-03-26T02:01:28.927Z,65.17
2018-03-26T02:03:57.271Z,65.29
2018-03-26T02:06:25.594Z,65.42
2018-03-26T02:08:53.933Z,65.24
2018-03-26T02:11:22.253Z,65.34
2018-03-26T02:13:50.609Z,65.02
2018-03-26T02:16:18.931Z,65.03
2018-03-26T02:18:47.270Z,65.02
2018-03-26T02:21:15.607Z,65.32
2018-03-26T02:23:43.946Z,65.44
2018-03-26T02:26:12.274Z,65.74
2018-03-26T02:28:40.623Z,65.42
2018-03-26T02:31:09.271Z,65.61
2018-03-26T02:33:37.598Z,65.71
2018-03-26T02:36:05.928Z,66.19
2018-03-26T02:38:34.271Z,66.43
2018-03-26T02:41:02.588Z,66.57
2018-03-26T02:43:30.931Z,66.59
2018-03-26T02:45:59.255Z,66.49
2018-03-26T02:48:27.599Z,66.47
2018-03-26T02:50:55.919Z,66.74
2018-03-26T02:53:24.258Z,66.74
2018-03-26T02:55:52.586Z,67.19
2018-03-26T02:58:20.922Z,67.58
2018-03-26T03:00:49.247Z,67.62
2018-03-26T03:03:20.513Z,67.67
2018-03-26T03:05:48.831Z,67.75
2018-03-26T03:08:17.176Z,67.83
2018-03-26T03:10:45.501Z,68.00
2018-03-26T03:13:13.842Z,67.79
2018-03-26T03:15:42.164Z,67.86
2018-03-26T03:18:10.513Z,67.90
2018-03-26T03:20:38.841Z,68.07
2018-03-26T03:23:07.178Z,67.69
2018-03-26T03:25:35.494Z,67.88
2018-03-26T03:28:03.843Z,67.91
2018-03-26T03:30:32.167Z,67.86
2018-03-26T03:33:00.528Z,67.91
2018-03-26T03:35:28.849Z,67.81
2018-03-26T03:37:57.173Z,67.97
2018-03-26T03:40:25.514Z,67.90
2018-03-26T03:42:53.844Z,67.90
2018-03-26T03:45:22.202Z,67.82
2018-03-26T03:47:50.522Z,67.65
2018-03-26T03:50:18.862Z,67.84
2018-03-26T03:52:47.190Z,67.72
2018-03-26T03:55:15.526Z,67.90
2018-03-26T03:57:43.846Z,68.64
2018-03-26T04:00:12.209Z,69.14
2018-03-26T04:02:40.513Z,69.00
2018-03-26T04:05:08.861Z,68.83
2018-03-26T04:07:37.183Z,69.26
2018-03-26T04:10:05.522Z,69.29
2018-03-26T04:12:33.834Z,69.36
2018-03-26T04:15:02.183Z,69.11
2018-03-26T04:17:30.506Z,68.90
2018-03-26T04:19:58.854Z,68.70
2018-03-26T04:22:27.173Z,68.52
2018-03-26T04:24:55.513Z,68.41
2018-03-26T04:27:23.835Z,68.53
2018-03-26T04:29:52.178Z,68.38
2018-03-26T04:32:20.498Z,68.65
2018-03-26T04:34:48.842Z,68.63
2018-03-26T04:37:17.249Z,68.64
2018-03-26T04:39:45.582Z,68.63
2018-03-26T04:42:13.908Z,68.74
2018-03-26T04:44:42.257Z,68.67
2018-03-26T04:47:10.586Z,68.72
2018-03-26T04:49:38.930Z,69.00
2018-03-26T04:52:07.258Z,68.96
2018-03-26T04:54:35.606Z,69.08
2018-03-26T04:57:03.938Z,69.05
2018-03-26T04:59:32.873Z,69.08
2018-03-26T05:02:01.201Z,69.10
2018-03-26T05:04:29.550Z,69.17
2018-03-26T05:06:58.826Z,69.14
2018-03-26T05:09:27.182Z,69.31
2018-03-26T05:11:55.505Z,69.53
2018-03-26T05:14:23.927Z,69.81
2018-03-26T05:16:52.190Z,69.65
2018-03-26T05:19:20.543Z,69.53
2018-03-26T05:21:48.877Z,69.40
2018-03-26T05:24:17.231Z,69.44
2018-03-26T05:26:45.554Z,69.58
2018-03-26T05:29:13.918Z,69.66
2018-03-26T05:31:42.247Z,69.89
2018-03-26T05:34:10.599Z,69.87
2018-03-26T05:36:38.931Z,69.72
2018-03-26T05:39:07.253Z,70.03
2018-03-26T05:41:35.602Z,69.87
2018-03-26T05:44:03.932Z,69.73
2018-03-26T05:46:32.292Z,69.87
2018-03-26T05:49:00.619Z,69.90
2018-03-26T05:51:28.967Z,69.83
2018-03-26T05:53:57.293Z,70.06
2018-03-26T05:56:25.749Z,70.35
2018-03-26T05:58:54.058Z,70.63
2018-03-26T06:01:26.888Z,70.99
2018-03-26T06:03:55.746Z,71.21
2018-03-26T06:06:24.090Z,71.07
2018-03-26T06:08:52.417Z,71.41
2018-03-26T06:11:20.774Z,71.84
2018-03-26T06:13:49.123Z,71.84
2018-03-26T06:16:17.450Z,72.04
2018-03-26T06:18:46.138Z,71.90
2018-03-26T06:21:14.486Z,72.10
2018-03-26T06:23:42.814Z,72.27
2018-03-26T06:26:12.057Z,72.44
2018-03-26T06:28:40.390Z,72.48
2018-03-26T06:31:08.737Z,72.68
2018-03-26T06:33:37.074Z,72.50
2018-03-26T06:39:33.925Z,72.27
2018-03-26T06:42:02.338Z,72.61
2018-03-26T06:44:30.661Z,72.57
2018-03-26T06:46:59.015Z,72.48
2018-03-26T06:49:27.346Z,72.49
2018-03-26T06:51:55.688Z,72.10
2018-03-26T06:54:24.022Z,71.90
2018-03-26T06:56:52.374Z,71.71
2018-03-26T06:59:20.697Z,71.70
2018-03-26T07:01:49.049Z,72.28
2018-03-26T07:04:17.375Z,71.93
2018-03-26T07:06:46.400Z,72.48
2018-03-26T07:09:14.690Z,73.39
2018-03-26T07:11:43.043Z,73.81
2018-03-26T07:14:11.376Z,74.09
2018-03-26T07:16:39.738Z,73.81
2018-03-26T07:19:08.061Z,73.74
2018-03-26T07:21:36.432Z,73.39
2018-03-26T07:24:04.750Z,73.38
2018-03-26T07:26:34.102Z,72.81
2018-03-26T07:29:02.435Z,72.52
2018-03-26T07:31:30.790Z,72.32
2018-03-26T07:33:59.190Z,72.09
2018-03-26T07:36:27.534Z,72.38
2018-03-26T07:38:55.910Z,72.79
2018-03-26T07:41:24.622Z,73.38
2018-03-26T07:43:53.010Z,73.05
2018-03-26T07:46:22.626Z,72.61
2018-03-26T07:48:50.979Z,73.12
2018-03-26T07:51:19.401Z,73.17
2018-03-26T07:53:47.754Z,72.97
2018-03-26T07:56:16.114Z,72.77
2018-03-26T07:58:44.443Z,72.88
2018-03-26T08:01:12.789Z,72.93
2018-03-26T08:03:41.122Z,72.93
2018-03-26T08:06:09.563Z,72.93
2018-03-26T08:08:37.901Z,73.94
2018-03-26T08:11:06.376Z,74.29
2018-03-26T08:13:34.694Z,74.69
2018-03-26T08:16:03.048Z,74.96
2018-03-26T08:18:31.383Z,74.84
2018-03-26T08:20:59.730Z,74.05
2018-03-26T08:23:28.070Z,73.35
2018-03-26T08:25:56.898Z,73.79
2018-03-26T08:28:25.227Z,73.93
2018-03-26T08:30:53.578Z,73.76
2018-03-26T08:33:21.917Z,73.40
2018-03-26T08:35:50.290Z,73.26
2018-03-26T08:38:18.626Z,75.94
2018-03-26T08:40:46.949Z,71.85
2018-03-26T08:43:15.290Z,71.83
2018-03-26T08:45:43.611Z,71.80
2018-03-26T08:48:11.966Z,71.90
2018-03-26T08:50:40.287Z,72.15
2018-03-26T08:53:08.627Z,71.66
2018-03-26T08:55:37.174Z,71.47
2018-03-26T08:58:05.506Z,70.68
2018-03-26T09:00:33.833Z,70.57
2018-03-26T09:03:02.178Z,70.90
2018-03-26T09:05:30.502Z,71.57
2018-03-26T09:07:58.838Z,71.67
2018-03-26T09:10:27.168Z,71.81
2018-03-26T09:12:55.506Z,71.23
2018-03-26T09:15:23.835Z,71.21
2018-03-26T09:17:52.180Z,70.92
2018-03-26T09:20:20.509Z,71.86
2018-03-26T09:22:48.849Z,71.75
2018-03-26T09:25:17.174Z,71.75
2018-03-26T09:27:45.543Z,71.57
2018-03-26T09:30:13.866Z,71.06
2018-03-26T09:32:42.206Z,69.69
2018-03-26T09:35:10.535Z,69.82
2018-03-26T09:37:38.884Z,69.97
2018-03-26T09:40:07.205Z,69.41
2018-03-26T09:42:35.550Z,69.92
2018-03-26T09:45:03.863Z,69.95
2018-03-26T09:47:32.198Z,69.52
2018-03-26T09:50:00.522Z,69.54
2018-03-26T09:52:28.867Z,68.75
2018-03-26T09:54:57.194Z,68.33
2018-03-26T09:57:25.542Z,68.28
2018-03-26T09:59:53.865Z,67.99
2018-03-26T10:02:22.210Z,68.20
2018-03-26T10:04:50.539Z,68.29
2018-03-26T10:07:18.886Z,69.00
2018-03-26T10:09:47.214Z,69.04
2018-03-26T10:12:15.554Z,68.73
2018-03-26T10:14:43.874Z,69.62
2018-03-26T10:17:12.213Z,68.87
2018-03-26T10:19:40.559Z,69.06
2018-03-26T10:22:08.878Z,69.03
2018-03-26T10:24:37.196Z,68.86
2018-03-26T10:27:05.534Z,68.74
2018-03-26T10:29:33.846Z,68.26
2018-03-26T10:32:02.190Z,68.20
2018-03-26T10:34:30.506Z,69.47
2018-03-26T10:36:58.846Z,68.02
2018-03-26T10:39:27.281Z,67.47
2018-03-26T10:41:55.610Z,67.03
2018-03-26T10:44:24.115Z,67.82
2018-03-26T10:46:52.451Z,68.15
2018-03-26T10:49:20.798Z,68.25
2018-03-26T10:51:49.138Z,68.57
2018-03-26T10:54:17.486Z,68.89
2018-03-26T10:56:46.014Z,69.57
2018-03-26T10:59:14.397Z,68.60
2018-03-26T11:01:42.718Z,67.32
2018-03-26T11:04:11.067Z,68.00
2018-03-26T11:06:39.387Z,68.85
2018-03-26T11:09:07.730Z,68.44
2018-03-26T11:11:36.054Z,68.22
2018-03-26T11:14:04.403Z,68.27
2018-03-26T11:16:32.732Z,68.66
2018-03-26T11:19:01.268Z,69.37
2018-03-26T11:21:29.598Z,69.40
2018-03-26T11:23:57.951Z,68.86
2018-03-26T11:26:26.275Z,68.03
2018-03-26T11:28:54.623Z,68.16
2018-03-26T11:31:23.019Z,67.99
2018-03-26T11:33:51.545Z,67.92
2018-03-26T11:36:19.904Z,67.69
2018-03-26T11:38:48.219Z,67.64
2018-03-26T11:41:16.549Z,67.87
2018-03-26T11:43:44.898Z,68.01
2018-03-26T11:46:14.235Z,68.32
2018-03-26T11:48:42.719Z,69.09
2018-03-26T11:51:11.150Z,69.40
2018-03-26T11:53:39.672Z,69.57
2018-03-26T11:56:08.118Z,68.29
2018-03-26T11:58:37.601Z,68.74
2018-03-26T12:01:05.950Z,69.55
2018-03-26T12:03:34.302Z,69.27
2018-03-26T12:06:02.690Z,69.72
2018-03-26T12:08:31.031Z,69.34
2018-03-26T12:10:59.358Z,69.47
2018-03-26T12:13:27.726Z,68.64
2018-03-26T12:15:56.071Z,69.25
2018-03-26T12:18:24.886Z,69.12
2018-03-26T12:21:02.669Z,68.54
2018-03-26T12:23:42.851Z,68.22
2018-03-26T12:26:12.174Z,67.16
2018-03-26T12:28:52.205Z,67.71
2018-03-26T12:31:20.554Z,68.45
2018-03-26T12:34:00.706Z,67.99
2018-03-26T12:36:30.152Z,68.36
2018-03-26T12:38:58.642Z,68.41
2018-03-26T12:41:27.007Z,68.02
2018-03-26T12:43:55.367Z,67.81
2018-03-26T12:46:36.550Z,67.89
2018-03-26T12:49:04.910Z,68.47
2018-03-26T12:51:45.213Z,69.13
2018-03-26T12:54:13.566Z,69.58
2018-03-26T12:56:41.893Z,69.21
2018-03-26T12:59:10.236Z,68.37
2018-03-26T13:01:50.278Z,68.68
2018-03-26T13:04:18.622Z,68.58
2018-03-26T13:06:47.036Z,68.89
2018-03-26T13:09:15.403Z,67.88
2018-03-26T13:11:43.722Z,67.48
2018-03-26T13:14:12.070Z,67.29
2018-03-26T13:16:40.398Z,67.39
2018-03-26T13:19:08.750Z,67.33
2018-03-26T13:21:37.079Z,67.87
2018-03-26T13:24:05.426Z,67.56
2018-03-26T13:26:34.769Z,67.36
2018-03-26T13:29:03.215Z,67.24
2018-03-26T13:31:31.592Z,66.86
2018-03-26T13:34:00.271Z,67.26
2018-03-26T13:36:28.587Z,66.98
2018-03-26T13:38:56.955Z,66.62
2018-03-26T13:41:25.278Z,67.30
2018-03-26T13:43:53.638Z,67.12
2018-03-26T13:46:21.961Z,67.23
2018-03-26T13:48:50.382Z,67.06
2018-03-26T13:51:18.733Z,66.75
2018-03-26T13:53:48.087Z,66.25
2018-03-26T13:56:16.432Z,66.23
2018-03-26T13:58:44.761Z,65.93
2018-03-26T14:01:13.103Z,66.10
2018-03-26T14:03:41.426Z,66.45
2018-03-26T14:06:10.011Z,66.18
2018-03-26T14:08:50.114Z,66.34
2018-03-26T14:11:30.106Z,66.23
2018-03-26T14:14:10.095Z,66.72
2018-03-26T14:16:51.325Z,66.97
2018-03-26T14:19:20.942Z,66.69
2018-03-26T14:21:49.320Z,66.97
2018-03-26T14:24:18.109Z,67.60
2018-03-26T14:26:47.830Z,68.23
2018-03-26T14:29:16.334Z,68.57
2018-03-26T14:31:44.745Z,69.01
2018-03-26T14:34:13.779Z,68.80
2018-03-26T14:36:42.104Z,76.95
2018-03-26T14:39:10.497Z,67.63
2018-03-26T14:41:39.085Z,66.73
2018-03-26T14:44:07.552Z,66.94
2018-03-26T14:46:36.770Z,67.68
2018-03-26T14:49:05.160Z,67.83
2018-03-26T14:51:33.662Z,68.19
2018-03-26T14:54:02.180Z,68.16
2018-03-26T14:56:31.499Z,68.04
2018-03-26T14:58:59.854Z,68.18
2018-03-26T15:01:28.268Z,67.95
2018-03-26T15:04:01.004Z,68.40
2018-03-26T15:06:30.302Z,68.50
2018-03-26T15:08:58.736Z,69.29
2018-03-26T15:11:27.662Z,69.31
2018-03-26T15:13:56.006Z,69.71
2018-03-26T15:16:24.409Z,69.75
2018-03-26T15:18:52.878Z,69.01
2018-03-26T15:21:21.279Z,68.43
2018-03-26T15:23:49.798Z,68.53
2018-03-26T15:26:19.258Z,68.85
2018-03-26T15:28:47.705Z,69.29
2018-03-26T15:31:16.096Z,69.57
2018-03-26T15:33:44.519Z,69.08
2018-03-26T15:36:12.875Z,69.17
2018-03-26T15:41:21.863Z,69.34
2018-03-26T15:43:50.187Z,69.35
2018-03-26T15:46:18.542Z,69.70
2018-03-26T15:48:46.890Z,69.84
2018-03-26T15:51:15.278Z,69.62
2018-03-26T15:53:43.590Z,69.62
2018-03-26T15:56:12.980Z,69.39
2018-03-26T15:58:46.174Z,69.48
2018-03-26T16:01:19.670Z,68.96
2018-03-26T16:03:48.062Z,69.27
2018-03-26T16:06:16.690Z,69.22
2018-03-26T16:08:45.039Z,69.25
2018-03-26T16:11:13.485Z,69.42
2018-03-26T16:13:42.081Z,69.26
2018-03-26T16:16:11.166Z,68.87
2018-03-26T16:18:39.499Z,68.62
2018-03-26T16:21:07.838Z,68.27
2018-03-26T16:23:36.158Z,68.67
2018-03-26T16:26:04.503Z,68.49
2018-03-26T16:28:32.854Z,68.36
2018-03-26T16:31:01.194Z,68.60
2018-03-26T16:33:29.613Z,69.12
2018-03-26T16:35:57.971Z,68.77
2018-03-26T16:38:26.304Z,68.90
2018-03-26T16:40:54.684Z,64.61
2018-03-26T16:43:23.042Z,66.90
2018-03-26T16:45:51.394Z,67.51
2018-03-26T16:48:19.798Z,67.85
2018-03-26T16:50:48.153Z,67.73
2018-03-26T16:53:16.952Z,67.36
2018-03-26T16:55:45.286Z,67.62
2018-03-26T16:58:13.626Z,67.53
2018-03-26T17:00:41.976Z,67.58
2018-03-26T17:03:10.970Z,67.48
2018-03-26T17:05:39.316Z,67.77
2018-03-26T17:08:07.678Z,67.77
2018-03-26T17:10:36.010Z,67.57
2018-03-26T17:13:04.379Z,67.62
2018-03-26T17:15:32.874Z,67.26
2018-03-26T17:18:01.246Z,67.02
2018-03-26T17:20:29.618Z,66.69
2018-03-26T17:22:57.970Z,66.62
2018-03-26T17:25:27.217Z,66.85
2018-03-26T17:27:55.621Z,78.60
2018-03-26T17:30:23.978Z,67.46
2018-03-26T17:32:52.410Z,64.56
2018-03-26T17:35:21.646Z,65.13
2018-03-26T17:37:50.105Z,65.77
2018-03-26T17:40:18.461Z,65.71
2018-03-26T17:42:46.903Z,65.78
2018-03-26T17:45:15.362Z,65.85
2018-03-26T17:47:43.761Z,65.84
2018-03-26T17:50:12.166Z,65.96
2018-03-26T17:52:40.502Z,65.91
2018-03-26T17:55:08.826Z,66.07
2018-03-26T17:57:37.490Z,65.92
2018-03-26T18:00:05.996Z,66.10
2018-03-26T18:02:34.423Z,66.09
2018-03-26T18:05:02.774Z,65.94
2018-03-26T18:07:32.125Z,66.20
2018-03-26T18:10:00.623Z,66.56
2018-03-26T18:12:28.949Z,66.84
2018-03-26T18:14:57.309Z,66.84
2018-03-26T18:17:25.672Z,66.73
2018-03-26T18:19:54.110Z,66.58
2018-03-26T18:22:22.496Z,66.54
2018-03-26T18:24:50.851Z,66.57
2018-03-26T18:27:20.186Z,66.71
2018-03-26T18:29:48.541Z,66.83
2018-03-26T18:32:17.039Z,67.00
2018-03-26T18:34:45.517Z,67.27
2018-03-26T18:37:14.819Z,67.36
2018-03-26T18:39:43.141Z,67.40
2018-03-26T18:42:11.596Z,67.62
2018-03-26T18:44:39.919Z,67.59
2018-03-26T18:47:08.343Z,67.59
2018-03-26T18:49:36.711Z,67.61
2018-03-26T18:52:05.054Z,67.73
2018-03-26T18:54:33.451Z,68.02
2018-03-26T18:57:01.898Z,68.51
2018-03-26T18:59:30.272Z,68.90
2018-03-26T19:01:58.667Z,69.00
2018-03-26T19:04:27.019Z,68.78
2018-03-26T19:06:56.460Z,68.60
2018-03-26T19:09:24.819Z,68.36
2018-03-26T19:11:53.176Z,68.17
2018-03-26T19:14:21.541Z,68.33
2018-03-26T19:16:49.895Z,68.47
2018-03-26T19:19:18.260Z,68.41
2018-03-26T19:21:46.574Z,68.50
2018-03-26T19:24:15.188Z,68.35
2018-03-26T19:26:43.683Z,68.30
2018-03-26T19:29:12.208Z,68.20
2018-03-26T19:31:45.582Z,68.13
2018-03-26T19:34:14.074Z,68.08
2018-03-26T19:36:43.394Z,68.17
2018-03-26T19:39:11.789Z,68.27
2018-03-26T19:41:40.215Z,68.19
2018-03-26T19:44:09.133Z,68.10
2018-03-26T19:46:38.598Z,68.11
2018-03-26T19:49:07.064Z,68.16
2018-03-26T19:51:36.290Z,68.01
2018-03-26T19:54:04.877Z,71.29
2018-03-26T19:56:33.210Z,70.03
2018-03-26T19:59:01.557Z,68.23
2018-03-26T20:01:30.014Z,68.19
2018-03-26T20:03:58.409Z,68.26
2018-03-26T20:06:26.826Z,68.14
2018-03-26T20:08:55.226Z,68.02
2018-03-26T20:11:23.650Z,68.31
2018-03-26T20:13:52.029Z,68.82
2018-03-26T20:16:20.561Z,69.19
2018-03-26T20:18:49.008Z,68.95
2018-03-26T20:21:17.551Z,69.06
2018-03-26T20:23:45.910Z,69.33
2018-03-26T20:26:14.261Z,69.81
2018-03-26T20:28:42.599Z,70.20
2018-03-26T20:31:10.922Z,70.72
2018-03-26T20:33:39.291Z,71.04
2018-03-26T20:36:07.628Z,70.96
2018-03-26T20:38:36.106Z,70.68
2018-03-26T20:41:04.425Z,70.54
2018-03-26T20:43:32.829Z,70.64
2018-03-26T20:46:01.158Z,70.83
2018-03-26T20:48:29.510Z,70.80
2018-03-26T20:50:57.838Z,70.65
2018-03-26T20:53:26.182Z,70.32
2018-03-26T20:55:54.523Z,70.12
2018-03-26T20:58:22.865Z,70.04
2018-03-26T21:00:51.190Z,69.95
2018-03-26T21:03:19.550Z,69.86
2018-03-26T21:05:47.869Z,69.84
2018-03-26T21:08:16.222Z,69.93
2018-03-26T21:10:44.549Z,69.91
2018-03-26T21:13:12.905Z,70.17
2018-03-26T21:15:41.234Z,70.71
2018-03-26T21:18:09.576Z,70.72
2018-03-26T21:20:37.909Z,70.86
2018-03-26T21:23:06.270Z,70.81
2018-03-26T21:25:34.595Z,70.49
2018-03-26T21:28:02.929Z,70.26
2018-03-26T21:30:31.270Z,70.38
2018-03-26T21:32:59.590Z,70.42
2018-03-26T21:35:28.331Z,70.49
2018-03-26T21:37:56.969Z,70.38
2018-03-26T21:40:25.317Z,70.22
2018-03-26T21:42:53.649Z,70.31
2018-03-26T21:45:22.008Z,70.21
2018-03-26T21:47:50.336Z,70.25
2018-03-26T21:50:18.684Z,68.82
2018-03-26T21:52:47.016Z,68.77
2018-03-26T21:55:15.365Z,69.29
2018-03-26T21:57:43.699Z,69.66
2018-03-26T22:00:18.002Z,69.99
2018-03-26T22:02:46.337Z,70.26
2018-03-26T22:05:14.717Z,70.52
2018-03-26T22:07:43.047Z,70.58
2018-03-26T22:10:11.404Z,70.55
2018-03-26T22:12:39.727Z,70.65
2018-03-26T22:15:08.092Z,71.08
2018-03-26T22:17:37.464Z,71.30
2018-03-26T22:20:05.872Z,71.20
2018-03-26T22:22:34.156Z,71.29
2018-03-26T22:25:02.518Z,71.06
2018-03-26T22:27:30.929Z,71.53
2018-03-26T22:29:59.275Z,72.15
2018-03-26T22:32:27.598Z,72.12
2018-03-26T22:34:55.987Z,71.79
2018-03-26T22:37:28.053Z,71.50
2018-03-26T22:39:57.075Z,71.64
2018-03-26T22:42:25.406Z,72.28
2018-03-26T22:44:53.838Z,72.71
2018-03-26T22:47:22.235Z,73.37
2018-03-26T22:49:50.591Z,73.93
2018-03-26T22:52:18.910Z,74.36
2018-03-26T22:54:47.259Z,74.37
2018-03-26T22:57:15.586Z,74.44
2018-03-26T22:59:43.936Z,74.87
2018-03-26T23:02:12.266Z,75.01
2018-03-26T23:04:40.616Z,74.61
2018-03-26T23:07:08.945Z,73.87
2018-03-26T23:09:37.291Z,73.37
2018-03-26T23:12:05.627Z,72.94
2018-03-26T23:14:33.977Z,72.87
2018-03-26T23:17:02.318Z,71.96
2018-03-26T23:19:31.354Z,71.72
2018-03-26T23:21:59.679Z,71.74
2018-03-26T23:24:28.031Z,71.58
2018-03-26T23:26:56.358Z,71.48
2018-03-26T23:29:24.711Z,71.60
2018-03-26T23:31:53.038Z,71.80
2018-03-26T23:34:21.385Z,71.75
2018-03-26T23:36:49.718Z,71.82
2018-03-26T23:39:18.046Z,71.95
2018-03-26T23:41:46.391Z,71.70
2018-03-26T23:44:14.714Z,71.51
2018-03-26T23:46:43.054Z,71.38
2018-03-26T23:49:11.365Z,71.75
2018-03-26T23:51:39.705Z,71.87
2018-03-26T23:54:08.030Z,71.92
2018-03-26T23:56:36.370Z,71.94
2018-03-26T23:59:04.700Z,71.90
